PWSweather.com
Personal Weather Stations
Station Observations
IPORTUGA89
BarosaPT

BarosaPT

Lat: 39.754028, Lon: -8.843

Elevation: 98

Station Type: Davis Vp2

Latest ConditionsUpdated 7:27:17 PM GMT Tuesday, Nov 12, 2019
Currently Today's Max Today's Min Today's Average
Temperature 59.7°F15.4°C 61.0°F16.1°C 41.7°F5.4°C 51.6°F10.9°C
Dew Point 57.0°F13.9°C 57.4°F14.1°C 40.5°F4.7°C 48.9°F9.4°C
Winds 4.9 mph NW7.9 kmh NW 6.0 mph -9.7 kmh - - 1.3 mph 2.1 kmh
Wind Gusts 13.0 mph20.9 kmh 13.0 mph20.9 kmh - -
Humidity 91% 96% 76% 91%
Pressure 30.06 in1017.9 mb 30.23 in1023.7 mb 30.05 in1017.6 mb -
Precipitation - 0.04 in1.0 mm - -
Hour Temp Dew Point Humidity Winds Wind Gusts Pressure Precip Precip Rate Daily Precip Total
07:27 PM 59.7°F15.4°C 57.0°F13.9°C 91% 4.9 mph NW7.9 kmh NW 13.0 mph20.9 kmh 30.06 in1017.9 mb 0.02 in0.5 mm 0.00 in0.0 mm 0.04 in1.0 mm
07:17 PM 59.9°F15.5°C 57.2°F14.0°C 91% 4.0 mph SW6.4 kmh SW 8.9 mph14.3 kmh 30.06 in1017.9 mb 0.02 in0.5 mm 0.11 in2.8 mm 0.03 in0.8 mm
07:06 PM 60.1°F15.6°C 57.4°F14.1°C 91% 4.0 mph WSW6.4 kmh WSW 11.0 mph17.7 kmh 30.05 in1017.6 mb 0.00 in0.0 mm 0.00 in0.0 mm 0.02 in0.5 mm
06:56 PM 60.1°F15.6°C 57.2°F14.0°C 90% 2.0 mph SW3.2 kmh SW 8.1 mph13.0 kmh 30.05 in1017.6 mb 0.00 in0.0 mm 0.00 in0.0 mm 0.02 in0.5 mm
06:46 PM 60.1°F15.6°C 57.2°F14.0°C 90% 2.0 mph SSW3.2 kmh SSW 4.0 mph6.4 kmh 30.05 in1017.6 mb 0.00 in0.0 mm 0.00 in0.0 mm 0.02 in0.5 mm
06:36 PM 60.3°F15.7°C 57.4°F14.1°C 90% 2.9 mph SW4.7 kmh SW 8.1 mph13.0 kmh 30.06 in1017.9 mb 0.00 in0.0 mm 0.00 in0.0 mm 0.02 in0.5 mm
06:26 PM 60.1°F15.6°C 57.2°F14.0°C 90% 4.0 mph SW6.4 kmh SW 10.1 mph16.3 kmh 30.06 in1017.9 mb 0.00 in0.0 mm 0.00 in0.0 mm 0.02 in0.5 mm
06:16 PM 59.9°F15.5°C 57.0°F13.9°C 90% 2.9 mph WSW4.7 kmh WSW 6.9 mph11.1 kmh 30.06 in1017.9 mb 0.00 in0.0 mm 0.00 in0.0 mm 0.02 in0.5 mm
06:06 PM 59.7°F15.4°C 57.0°F13.9°C 91% 2.9 mph SW4.7 kmh SW 8.9 mph14.3 kmh 30.07 in1018.3 mb 0.00 in0.0 mm 0.00 in0.0 mm 0.02 in0.5 mm
05:56 PM 59.5°F15.3°C 56.8°F13.8°C 91% 2.9 mph SW4.7 kmh SW 8.1 mph13.0 kmh 30.07 in1018.3 mb 0.00 in0.0 mm 0.00 in0.0 mm 0.02 in0.5 mm
05:46 PM 59.5°F15.3°C 57.2°F14.0°C 92% 2.9 mph SW4.7 kmh SW 6.9 mph11.1 kmh 30.08 in1018.6 mb 0.00 in0.0 mm 0.00 in0.0 mm 0.02 in0.5 mm
05:36 PM 59.4°F15.2°C 57.0°F13.9°C 92% 2.9 mph W4.7 kmh W 6.9 mph11.1 kmh 30.08 in1018.6 mb 0.00 in0.0 mm 0.00 in0.0 mm 0.02 in0.5 mm
05:26 PM 59.4°F15.2°C 57.0°F13.9°C 92% 2.0 mph SW3.2 kmh SW 4.9 mph7.9 kmh 30.08 in1018.6 mb 0.00 in0.0 mm 0.00 in0.0 mm 0.02 in0.5 mm
05:16 PM 59.4°F15.2°C 57.0°F13.9°C 92% 2.9 mph SW4.7 kmh SW 6.9 mph11.1 kmh 30.08 in1018.6 mb 0.00 in0.0 mm 0.00 in0.0 mm 0.02 in0.5 mm
05:06 PM 59.2°F15.1°C 56.8°F13.8°C 92% 2.0 mph W3.2 kmh W 4.9 mph7.9 kmh 30.09 in1019.0 mb 0.00 in0.0 mm 0.00 in0.0 mm 0.02 in0.5 mm
04:56 PM 59.2°F15.1°C 56.8°F13.8°C 92% 2.0 mph S3.2 kmh S 6.0 mph9.7 kmh 30.09 in1019.0 mb 0.00 in0.0 mm 0.00 in0.0 mm 0.02 in0.5 mm
04:46 PM 58.8°F14.9°C 56.5°F13.6°C 92% 0.9 mph S1.4 kmh S 4.0 mph6.4 kmh 30.09 in1019.0 mb 0.00 in0.0 mm 0.00 in0.0 mm 0.02 in0.5 mm
04:36 PM 58.6°F14.8°C 56.3°F13.5°C 92% 2.0 mph S3.2 kmh S 4.9 mph7.9 kmh 30.09 in1019.0 mb 0.00 in0.0 mm 0.00 in0.0 mm 0.02 in0.5 mm
04:26 PM 58.5°F14.7°C 56.1°F13.4°C 92% 2.0 mph S3.2 kmh S 4.9 mph7.9 kmh 30.10 in1019.3 mb 0.00 in0.0 mm 0.00 in0.0 mm 0.02 in0.5 mm
04:16 PM 58.3°F14.6°C 55.9°F13.3°C 92% 2.0 mph S3.2 kmh S 4.9 mph7.9 kmh 30.10 in1019.3 mb 0.00 in0.0 mm 0.00 in0.0 mm 0.02 in0.5 mm
04:06 PM 58.3°F14.6°C 55.9°F13.3°C 92% 2.0 mph SW3.2 kmh SW 6.0 mph9.7 kmh 30.10 in1019.3 mb 0.00 in0.0 mm 0.00 in0.0 mm 0.02 in0.5 mm
03:56 PM 57.9°F14.4°C 55.2°F12.9°C 91% 2.9 mph S4.7 kmh S 4.9 mph7.9 kmh 30.11 in1019.6 mb 0.00 in0.0 mm 0.00 in0.0 mm 0.02 in0.5 mm
03:46 PM 57.9°F14.4°C 55.2°F12.9°C 91% 2.9 mph SW4.7 kmh SW 6.9 mph11.1 kmh 30.11 in1019.6 mb 0.01 in0.3 mm 0.00 in0.0 mm 0.02 in0.5 mm
03:36 PM 57.7°F14.3°C 55.2°F12.9°C 91% 2.0 mph SW3.2 kmh SW 6.0 mph9.7 kmh 30.11 in1019.6 mb 0.01 in0.3 mm 0.00 in0.0 mm 0.02 in0.5 mm
03:26 PM 57.7°F14.3°C 55.2°F12.9°C 91% 2.0 mph SW3.2 kmh SW 4.9 mph7.9 kmh 30.11 in1019.6 mb 0.01 in0.3 mm 0.00 in0.0 mm 0.02 in0.5 mm
03:16 PM 57.6°F14.2°C 55.0°F12.8°C 91% 4.0 mph SW6.4 kmh SW 8.1 mph13.0 kmh 30.11 in1019.6 mb 0.01 in0.3 mm 0.00 in0.0 mm 0.02 in0.5 mm
03:06 PM 57.4°F14.1°C 54.9°F12.7°C 91% 2.9 mph SW4.7 kmh SW 6.0 mph9.7 kmh 30.12 in1020.0 mb 0.01 in0.3 mm 0.00 in0.0 mm 0.02 in0.5 mm
02:56 PM 57.4°F14.1°C 54.5°F12.5°C 90% 4.0 mph SW6.4 kmh SW 8.9 mph14.3 kmh 30.12 in1020.0 mb 0.01 in0.3 mm 0.06 in1.5 mm 0.02 in0.5 mm
02:46 PM 57.7°F14.3°C 54.1°F12.3°C 88% 2.9 mph WSW4.7 kmh WSW 6.9 mph11.1 kmh 30.13 in1020.3 mb 0.00 in0.0 mm 0.00 in0.0 mm 0.01 in0.3 mm
02:36 PM 58.1°F14.5°C 54.3°F12.4°C 87% 2.9 mph WSW4.7 kmh WSW 8.1 mph13.0 kmh 30.12 in1020.0 mb 0.00 in0.0 mm 0.00 in0.0 mm 0.01 in0.3 mm
02:26 PM 58.6°F14.8°C 53.8°F12.1°C 84% 4.9 mph W7.9 kmh W 10.1 mph16.3 kmh 30.12 in1020.0 mb 0.00 in0.0 mm 0.00 in0.0 mm 0.01 in0.3 mm
02:16 PM 59.5°F15.3°C 53.8°F12.1°C 81% 4.9 mph WSW7.9 kmh WSW 11.0 mph17.7 kmh 30.13 in1020.3 mb 0.00 in0.0 mm 0.00 in0.0 mm 0.01 in0.3 mm
02:06 PM 60.1°F15.6°C 54.0°F12.2°C 80% 4.0 mph WSW6.4 kmh WSW 11.0 mph17.7 kmh 30.13 in1020.3 mb 0.00 in0.0 mm 0.00 in0.0 mm 0.01 in0.3 mm
01:56 PM 60.4°F15.8°C 53.6°F12.0°C 78% 6.0 mph WSW9.7 kmh WSW 12.1 mph19.5 kmh 30.13 in1020.3 mb 0.00 in0.0 mm 0.00 in0.0 mm 0.01 in0.3 mm
01:46 PM 61.0°F16.1°C 54.1°F12.3°C 78% 4.0 mph W6.4 kmh W 8.9 mph14.3 kmh 30.14 in1020.7 mb 0.00 in0.0 mm 0.00 in0.0 mm 0.01 in0.3 mm
01:36 PM 60.8°F16.0°C 54.0°F12.2°C 78% 6.0 mph NW9.7 kmh NW 10.1 mph16.3 kmh 30.14 in1020.7 mb 0.00 in0.0 mm 0.00 in0.0 mm 0.01 in0.3 mm
01:26 PM 60.8°F16.0°C 54.0°F12.2°C 78% 4.9 mph WNW7.9 kmh WNW 11.0 mph17.7 kmh 30.15 in1021.0 mb 0.00 in0.0 mm 0.00 in0.0 mm 0.01 in0.3 mm
01:16 PM 60.6°F15.9°C 53.8°F12.1°C 78% 2.9 mph WSW4.7 kmh WSW 8.9 mph14.3 kmh 30.15 in1021.0 mb 0.00 in0.0 mm 0.00 in0.0 mm 0.01 in0.3 mm
01:06 PM 60.4°F15.8°C 52.9°F11.6°C 76% 4.9 mph N7.9 kmh N 11.0 mph17.7 kmh 30.16 in1021.3 mb 0.00 in0.0 mm 0.00 in0.0 mm 0.01 in0.3 mm
12:56 PM 60.4°F15.8°C 52.9°F11.6°C 76% 4.0 mph NNW6.4 kmh NNW 10.1 mph16.3 kmh 30.16 in1021.3 mb 0.00 in0.0 mm 0.00 in0.0 mm 0.01 in0.3 mm
12:46 PM 60.4°F15.8°C 52.9°F11.6°C 76% 2.9 mph NW4.7 kmh NW 4.9 mph7.9 kmh 30.16 in1021.3 mb 0.00 in0.0 mm 0.00 in0.0 mm 0.01 in0.3 mm
12:36 PM 60.3°F15.7°C 52.7°F11.5°C 76% 0.9 mph N1.4 kmh N 4.0 mph6.4 kmh 30.17 in1021.7 mb 0.00 in0.0 mm 0.00 in0.0 mm 0.01 in0.3 mm
12:26 PM 60.3°F15.7°C 53.1°F11.7°C 77% 2.0 mph N3.2 kmh N 4.9 mph7.9 kmh 30.18 in1022.0 mb 0.00 in0.0 mm 0.00 in0.0 mm 0.01 in0.3 mm
12:15 PM 59.9°F15.5°C 52.3°F11.3°C 76% 2.0 mph NW3.2 kmh NW 6.0 mph9.7 kmh 30.19 in1022.4 mb 0.00 in0.0 mm 0.00 in0.0 mm 0.01 in0.3 mm
12:05 PM 59.7°F15.4°C 52.5°F11.4°C 77% 4.0 mph WNW6.4 kmh WNW 8.9 mph14.3 kmh 30.19 in1022.4 mb 0.00 in0.0 mm 0.00 in0.0 mm 0.01 in0.3 mm
11:55 AM 60.1°F15.6°C 53.2°F11.8°C 78% 2.9 mph NW4.7 kmh NW 6.0 mph9.7 kmh 30.20 in1022.7 mb 0.00 in0.0 mm 0.00 in0.0 mm 0.01 in0.3 mm
11:45 AM 59.7°F15.4°C 53.2°F11.8°C 79% 2.9 mph NNW4.7 kmh NNW 8.1 mph13.0 kmh 30.20 in1022.7 mb 0.00 in0.0 mm 0.00 in0.0 mm 0.01 in0.3 mm
11:35 AM 59.4°F15.2°C 53.2°F11.8°C 80% 2.0 mph W3.2 kmh W 4.0 mph6.4 kmh 30.21 in1023.0 mb 0.00 in0.0 mm 0.00 in0.0 mm 0.01 in0.3 mm
11:25 AM 58.5°F14.7°C 53.2°F11.8°C 83% 0.9 mph W1.4 kmh W 4.0 mph6.4 kmh 30.21 in1023.0 mb 0.00 in0.0 mm 0.00 in0.0 mm 0.01 in0.3 mm
11:15 AM 57.7°F14.3°C 53.2°F11.8°C 85% 0.9 mph W1.4 kmh W 6.0 mph9.7 kmh 30.21 in1023.0 mb 0.00 in0.0 mm 0.00 in0.0 mm 0.01 in0.3 mm
11:05 AM 57.0°F13.9°C 53.2°F11.8°C 87% 0.9 mph W1.4 kmh W 6.0 mph9.7 kmh 30.21 in1023.0 mb 0.00 in0.0 mm 0.00 in0.0 mm 0.01 in0.3 mm
10:55 AM 55.9°F13.3°C 52.5°F11.4°C 88% 2.0 mph W3.2 kmh W 2.9 mph4.7 kmh 30.22 in1023.4 mb 0.00 in0.0 mm 0.00 in0.0 mm 0.01 in0.3 mm
10:45 AM 55.6°F13.1°C 52.7°F11.5°C 90% Calm Calm 2.0 mph3.2 kmh 30.22 in1023.4 mb 0.00 in0.0 mm 0.00 in0.0 mm 0.01 in0.3 mm
10:35 AM 54.9°F12.7°C 52.5°F11.4°C 92% Calm Calm 2.0 mph3.2 kmh 30.22 in1023.4 mb 0.00 in0.0 mm 0.00 in0.0 mm 0.01 in0.3 mm
10:25 AM 54.3°F12.4°C 52.3°F11.3°C 93% Calm Calm 2.9 mph4.7 kmh 30.22 in1023.4 mb 0.00 in0.0 mm 0.00 in0.0 mm 0.01 in0.3 mm
10:15 AM 53.4°F11.9°C 51.8°F11.0°C 94% 0.9 mph W1.4 kmh W 2.9 mph4.7 kmh 30.22 in1023.4 mb 0.00 in0.0 mm 0.00 in0.0 mm 0.01 in0.3 mm
10:05 AM 52.9°F11.6°C 51.4°F10.8°C 95% Calm Calm 0.9 mph1.4 kmh 30.22 in1023.4 mb 0.00 in0.0 mm 0.00 in0.0 mm 0.01 in0.3 mm
09:54 AM 52.2°F11.2°C 50.7°F10.4°C 95% Calm Calm -- 30.22 in1023.4 mb 0.00 in0.0 mm 0.00 in0.0 mm 0.01 in0.3 mm
09:44 AM 51.8°F11.0°C 50.7°F10.4°C 96% Calm Calm -- 30.22 in1023.4 mb 0.00 in0.0 mm 0.00 in0.0 mm 0.01 in0.3 mm
09:34 AM 51.1°F10.6°C 50.0°F10.0°C 96% Calm Calm 0.9 mph1.4 kmh 30.22 in1023.4 mb 0.00 in0.0 mm 0.00 in0.0 mm 0.01 in0.3 mm
09:24 AM 50.2°F10.1°C 49.1°F9.5°C 96% Calm Calm 0.9 mph1.4 kmh 30.22 in1023.4 mb 0.00 in0.0 mm 0.00 in0.0 mm 0.01 in0.3 mm
09:14 AM 49.3°F9.6°C 47.8°F8.8°C 95% Calm Calm 2.9 mph4.7 kmh 30.23 in1023.7 mb 0.00 in0.0 mm 0.00 in0.0 mm 0.01 in0.3 mm
09:04 AM 48.7°F9.3°C 47.7°F8.7°C 96% Calm Calm 0.9 mph1.4 kmh 30.22 in1023.4 mb 0.00 in0.0 mm 0.00 in0.0 mm 0.01 in0.3 mm
08:54 AM 47.8°F8.8°C 46.8°F8.2°C 96% Calm Calm 0.9 mph1.4 kmh 30.22 in1023.4 mb 0.00 in0.0 mm 0.00 in0.0 mm 0.01 in0.3 mm
08:44 AM 46.8°F8.2°C 45.7°F7.6°C 96% Calm Calm -- 30.22 in1023.4 mb 0.00 in0.0 mm 0.00 in0.0 mm 0.01 in0.3 mm
08:34 AM 45.5°F7.5°C 44.4°F6.9°C 96% Calm Calm -- 30.21 in1023.0 mb 0.00 in0.0 mm 0.00 in0.0 mm 0.01 in0.3 mm
08:24 AM 45.0°F7.2°C 43.9°F6.6°C 96% Calm Calm -- 30.21 in1023.0 mb 0.00 in0.0 mm 0.00 in0.0 mm 0.01 in0.3 mm
08:14 AM 44.2°F6.8°C 43.2°F6.2°C 96% Calm Calm -- 30.21 in1023.0 mb 0.00 in0.0 mm 0.00 in0.0 mm 0.01 in0.3 mm
08:04 AM 43.3°F6.3°C 42.1°F5.6°C 95% Calm Calm -- 30.20 in1022.7 mb 0.00 in0.0 mm 0.00 in0.0 mm 0.01 in0.3 mm
07:53 AM 42.4°F5.8°C 41.2°F5.1°C 95% Calm Calm 0.9 mph1.4 kmh 30.20 in1022.7 mb 0.00 in0.0 mm 0.00 in0.0 mm 0.01 in0.3 mm
07:43 AM 42.1°F5.6°C 40.8°F4.9°C 95% Calm Calm 0.9 mph1.4 kmh 30.20 in1022.7 mb 0.00 in0.0 mm 0.00 in0.0 mm 0.01 in0.3 mm
07:33 AM 42.1°F5.6°C 40.8°F4.9°C 95% Calm Calm 2.0 mph3.2 kmh 30.19 in1022.4 mb 0.01 in0.3 mm 0.00 in0.0 mm 0.01 in0.3 mm
07:23 AM 42.3°F5.7°C 41.0°F5.0°C 95% Calm Calm -- 30.19 in1022.4 mb 0.01 in0.3 mm 0.00 in0.0 mm 0.01 in0.3 mm
07:13 AM 42.4°F5.8°C 41.2°F5.1°C 95% Calm Calm -- 30.19 in1022.4 mb 0.01 in0.3 mm 0.00 in0.0 mm 0.01 in0.3 mm
07:03 AM 42.6°F5.9°C 41.4°F5.2°C 95% Calm Calm -- 30.19 in1022.4 mb 0.01 in0.3 mm 0.00 in0.0 mm 0.01 in0.3 mm
06:53 AM 42.3°F5.7°C 41.0°F5.0°C 95% Calm Calm -- 30.19 in1022.4 mb 0.01 in0.3 mm 0.00 in0.0 mm 0.01 in0.3 mm
06:43 AM 41.9°F5.5°C 40.6°F4.8°C 95% Calm Calm -- 30.19 in1022.4 mb 0.01 in0.3 mm 0.06 in1.5 mm 0.01 in0.3 mm
06:33 AM 41.7°F5.4°C 40.5°F4.7°C 95% Calm Calm -- 30.19 in1022.4 mb 0.00 in0.0 mm 0.00 in0.0 mm 0.00 in0.0 mm
06:23 AM 41.9°F5.5°C 40.6°F4.8°C 95% Calm Calm -- 30.19 in1022.4 mb 0.00 in0.0 mm 0.00 in0.0 mm 0.00 in0.0 mm
06:12 AM 42.1°F5.6°C 40.8°F4.9°C 95% Calm Calm -- 30.19 in1022.4 mb 0.00 in0.0 mm 0.00 in0.0 mm 0.00 in0.0 mm
06:02 AM 42.1°F5.6°C 40.8°F4.9°C 95% Calm Calm -- 30.19 in1022.4 mb 0.00 in0.0 mm 0.00 in0.0 mm 0.00 in0.0 mm
05:52 AM 42.1°F5.6°C 40.8°F4.9°C 95% Calm Calm -- 30.19 in1022.4 mb 0.00 in0.0 mm 0.00 in0.0 mm 0.00 in0.0 mm
05:42 AM 42.3°F5.7°C 41.0°F5.0°C 95% Calm Calm -- 30.19 in1022.4 mb 0.00 in0.0 mm 0.00 in0.0 mm 0.00 in0.0 mm
05:32 AM 42.3°F5.7°C 41.0°F5.0°C 95% Calm Calm -- 30.19 in1022.4 mb 0.00 in0.0 mm 0.00 in0.0 mm 0.00 in0.0 mm
05:22 AM 42.3°F5.7°C 41.0°F5.0°C 95% Calm Calm -- 30.20 in1022.7 mb 0.00 in0.0 mm 0.00 in0.0 mm 0.00 in0.0 mm
05:11 AM 42.3°F5.7°C 40.6°F4.8°C 94% Calm Calm -- 30.20 in1022.7 mb 0.00 in0.0 mm 0.00 in0.0 mm 0.00 in0.0 mm
05:01 AM 42.4°F5.8°C 40.8°F4.9°C 94% Calm Calm -- 30.20 in1022.7 mb 0.00 in0.0 mm 0.00 in0.0 mm 0.00 in0.0 mm
04:51 AM 42.6°F5.9°C 41.0°F5.0°C 94% Calm Calm -- 30.20 in1022.7 mb 0.00 in0.0 mm 0.00 in0.0 mm 0.00 in0.0 mm
04:41 AM 43.2°F6.2°C 41.9°F5.5°C 95% Calm Calm -- 30.19 in1022.4 mb 0.00 in0.0 mm 0.00 in0.0 mm 0.00 in0.0 mm
04:31 AM 43.2°F6.2°C 41.5°F5.3°C 94% Calm Calm -- 30.19 in1022.4 mb 0.00 in0.0 mm 0.00 in0.0 mm 0.00 in0.0 mm
04:21 AM 43.3°F6.3°C 41.7°F5.4°C 94% Calm Calm -- 30.20 in1022.7 mb 0.00 in0.0 mm 0.00 in0.0 mm 0.00 in0.0 mm
04:11 AM 43.3°F6.3°C 41.7°F5.4°C 94% Calm Calm -- 30.20 in1022.7 mb 0.00 in0.0 mm 0.00 in0.0 mm 0.00 in0.0 mm
04:01 AM 43.5°F6.4°C 41.9°F5.5°C 94% Calm Calm -- 30.20 in1022.7 mb 0.00 in0.0 mm 0.00 in0.0 mm 0.00 in0.0 mm
03:51 AM 43.5°F6.4°C 41.9°F5.5°C 94% Calm Calm -- 30.20 in1022.7 mb 0.00 in0.0 mm 0.00 in0.0 mm 0.00 in0.0 mm
03:40 AM 43.9°F6.6°C 42.3°F5.7°C 94% Calm Calm -- 30.20 in1022.7 mb 0.00 in0.0 mm 0.00 in0.0 mm 0.00 in0.0 mm
03:30 AM 44.1°F6.7°C 42.4°F5.8°C 94% Calm Calm -- 30.21 in1023.0 mb 0.00 in0.0 mm 0.00 in0.0 mm 0.00 in0.0 mm
03:20 AM 44.2°F6.8°C 42.6°F5.9°C 94% Calm Calm -- 30.20 in1022.7 mb 0.00 in0.0 mm 0.00 in0.0 mm 0.00 in0.0 mm
03:10 AM 44.2°F6.8°C 43.0°F6.1°C 95% Calm Calm -- 30.20 in1022.7 mb 0.00 in0.0 mm 0.00 in0.0 mm 0.00 in0.0 mm
03:00 AM 44.1°F6.7°C 42.4°F5.8°C 94% Calm Calm -- 30.21 in1023.0 mb 0.00 in0.0 mm 0.00 in0.0 mm 0.00 in0.0 mm
02:50 AM 43.9°F6.6°C 42.3°F5.7°C 94% Calm Calm -- 30.22 in1023.4 mb 0.00 in0.0 mm 0.00 in0.0 mm 0.00 in0.0 mm
02:40 AM 44.2°F6.8°C 42.6°F5.9°C 94% Calm Calm -- 30.21 in1023.0 mb 0.00 in0.0 mm 0.00 in0.0 mm 0.00 in0.0 mm
02:30 AM 44.8°F7.1°C 43.2°F6.2°C 94% Calm Calm -- 30.21 in1023.0 mb 0.00 in0.0 mm 0.00 in0.0 mm 0.00 in0.0 mm
02:19 AM 44.6°F7.0°C 43.0°F6.1°C 94% Calm Calm -- 30.20 in1022.7 mb 0.00 in0.0 mm 0.00 in0.0 mm 0.00 in0.0 mm
02:09 AM 45.0°F7.2°C 43.3°F6.3°C 94% Calm Calm -- 30.21 in1023.0 mb 0.00 in0.0 mm 0.00 in0.0 mm 0.00 in0.0 mm
01:59 AM 45.1°F7.3°C 43.2°F6.2°C 93% Calm Calm -- 30.21 in1023.0 mb 0.00 in0.0 mm 0.00 in0.0 mm 0.00 in0.0 mm
01:49 AM 45.3°F7.4°C 43.7°F6.5°C 94% Calm Calm -- 30.21 in1023.0 mb 0.00 in0.0 mm 0.00 in0.0 mm 0.00 in0.0 mm
01:39 AM 45.7°F7.6°C 44.1°F6.7°C 94% Calm Calm -- 30.22 in1023.4 mb 0.00 in0.0 mm 0.00 in0.0 mm 0.00 in0.0 mm
01:29 AM 45.7°F7.6°C 43.7°F6.5°C 93% Calm Calm -- 30.22 in1023.4 mb 0.00 in0.0 mm 0.00 in0.0 mm 0.00 in0.0 mm
01:19 AM 45.9°F7.7°C 43.9°F6.6°C 93% Calm Calm -- 30.22 in1023.4 mb 0.00 in0.0 mm 0.00 in0.0 mm 0.00 in0.0 mm
01:08 AM 46.0°F7.8°C 44.1°F6.7°C 93% Calm Calm -- 30.22 in1023.4 mb 0.00 in0.0 mm 0.00 in0.0 mm 0.00 in0.0 mm
12:58 AM 46.0°F7.8°C 44.1°F6.7°C 93% Calm Calm -- 30.22 in1023.4 mb 0.00 in0.0 mm 0.00 in0.0 mm 0.00 in0.0 mm
12:48 AM 46.2°F7.9°C 44.2°F6.8°C 93% Calm Calm 0.9 mph1.4 kmh 30.23 in1023.7 mb 0.00 in0.0 mm 0.00 in0.0 mm 0.00 in0.0 mm
12:38 AM 46.6°F8.1°C 44.6°F7.0°C 93% Calm Calm 0.9 mph1.4 kmh 30.23 in1023.7 mb 0.00 in0.0 mm 0.00 in0.0 mm 0.00 in0.0 mm
12:28 AM 46.6°F8.1°C 44.6°F7.0°C 93% Calm Calm -- 30.23 in1023.7 mb 0.00 in0.0 mm 0.00 in0.0 mm 0.00 in0.0 mm
12:18 AM 46.9°F8.3°C 45.0°F7.2°C 93% Calm Calm -- 30.23 in1023.7 mb 0.00 in0.0 mm 0.00 in0.0 mm 0.00 in0.0 mm
12:07 AM 47.5°F8.6°C 45.5°F7.5°C 93% Calm Calm 2.0 mph3.2 kmh 30.23 in1023.7 mb 0.00 in0.0 mm 0.00 in0.0 mm 0.00 in0.0 mm